Time;durP1;ratioP1;P1;durP2;ratioP2;P2;SDS_P1;SDS_P2;PMS_P1;PMS_P2;Temp;Humidity;BMP_temperature;BMP_pressure;BME280_temperature;BME280_humidity;BME280_pressure;Samples;Min_cycle;Max_cycle;Signal;HPM_P1;HPM_P2
2021/10/20 00:00:27;;;;;;;;;;;;;;;16.51;57.34;99256.81;5032580;28;19917;-75
2021/10/20 00:02:55;;;;;;;;;;;;;;;16.53;57.55;99254.88;5034142;28;19917;-75
2021/10/20 00:05:21;;;;;;;;;;;;;;;16.56;57.37;99250.25;5023216;28;19921;-74
2021/10/20 00:07:46;;;;;;;;;;;;;;;16.56;56.99;99243.13;5037031;28;19923;-75
2021/10/20 00:10:12;;;;;;;;;;;;;;;16.57;57.19;99236.00;5032555;28;19917;-74
2021/10/20 00:12:38;;;;;;;;;;;;;;;16.59;57.06;99242.88;5026273;28;19917;-74
2021/10/20 00:15:05;;;;;;;;;;;;;;;16.61;56.89;99238.25;5041839;28;20403;-74
2021/10/20 00:17:30;;;;;;;;;;;;;;;16.61;57.05;99240.06;5014783;28;19924;-75
2021/10/20 00:20:00;;;;;;;;;;;;;;;16.62;56.74;99231.13;5037960;28;19925;-74
2021/10/20 00:22:25;;;;;;;;;;;;;;;16.63;56.53;99238.97;5013214;28;20046;-74
2021/10/20 00:24:51;;;;;;;;;;;;;;;16.65;56.95;99233.53;5015239;28;20403;-74
2021/10/20 00:27:23;;;;;;;;;;;;;;;16.63;56.94;99235.47;5030814;28;19996;-74
2021/10/20 00:29:49;;;;;;;;;;;;;;;16.64;56.94;99231.88;5031113;28;19955;-76
2021/10/20 00:32:14;;;;;;;;;;;;;;;16.63;57.00;99227.50;5012916;28;20284;-73
2021/10/20 00:34:39;;;;;;;;;;;;;;;16.62;56.90;99223.16;5031514;28;20361;-74
2021/10/20 00:37:04;;;;;;;;;;;;;;;16.61;56.91;99221.44;5014726;28;20722;-73
2021/10/20 00:39:30;;;;;;;;;;;;;;;16.60;57.29;99222.44;5020425;28;20388;-74
2021/10/20 00:41:55;;;;;;;;;;;;;;;16.56;57.12;99223.66;5012153;28;19921;-75
2021/10/20 00:44:20;;;;;;;;;;;;;;;16.52;57.32;99218.59;5030133;28;19971;-74
2021/10/20 00:46:45;;;;;;;;;;;;;;;16.52;57.49;99218.59;5030879;28;19978;-75
2021/10/20 00:49:11;;;;;;;;;;;;;;;16.49;57.43;99215.31;5030968;28;20369;-74
2021/10/20 00:51:36;;;;;;;;;;;;;;;16.48;57.83;99217.16;5030877;28;20296;-76
2021/10/20 00:54:01;;;;;;;;;;;;;;;16.49;57.52;99217.97;5029506;28;20364;-74
2021/10/20 00:56:27;;;;;;;;;;;;;;;16.52;57.45;99210.59;5030381;28;19921;-74
2021/10/20 00:58:53;;;;;;;;;;;;;;;16.49;57.94;99216.19;5030483;28;19924;-73
2021/10/20 01:01:20;;;;;;;;;;;;;;;16.47;57.53;99211.97;5005195;28;19928;-73
2021/10/20 01:03:46;;;;;;;;;;;;;;;16.45;58.06;99204.09;5029405;28;20368;-74
2021/10/20 01:06:11;;;;;;;;;;;;;;;16.45;57.88;99197.94;5030463;28;19936;-73
2021/10/20 01:08:37;;;;;;;;;;;;;;;16.44;57.97;99201.56;5030475;28;20004;-73
2021/10/20 01:11:03;;;;;;;;;;;;;;;16.40;58.50;99203.66;5029387;28;19964;-74
2021/10/20 01:13:29;;;;;;;;;;;;;;;16.40;58.04;99203.66;5012225;28;19940;-74
2021/10/20 01:15:55;;;;;;;;;;;;;;;16.38;58.63;99204.75;5030311;28;19921;-74
2021/10/20 01:18:20;;;;;;;;;;;;;;;16.36;58.40;99207.53;5030183;28;19925;-74
2021/10/20 01:20:46;;;;;;;;;;;;;;;16.32;58.98;99200.78;5029102;28;19929;-74
2021/10/20 01:23:11;;;;;;;;;;;;;;;16.29;58.75;99196.56;5009297;28;19917;-74
2021/10/20 01:25:46;;;;;;;;;;;;;;;16.26;59.10;99201.28;5030291;28;19921;-75
2021/10/20 01:28:11;;;;;;;;;;;;;;;16.25;58.96;99186.28;5030059;28;19982;-74
2021/10/20 01:30:36;;;;;;;;;;;;;;;16.24;59.16;99177.47;5028981;28;20050;-74
2021/10/20 01:33:02;;;;;;;;;;;;;;;16.26;59.31;99172.00;5012490;28;19921;-73
2021/10/20 01:35:27;;;;;;;;;;;;;;;16.28;59.42;99178.06;5012820;28;19921;-73
2021/10/20 01:37:52;;;;;;;;;;;;;;;16.25;59.29;99170.34;5012333;28;19952;-73
2021/10/20 01:40:17;;;;;;;;;;;;;;;16.24;59.68;99171.28;5028600;28;19917;-74
2021/10/20 01:42:43;;;;;;;;;;;;;;;16.23;59.75;99172.28;5029047;28;20381;-74
2021/10/20 01:45:10;;;;;;;;;;;;;;;16.20;59.83;99176.03;5029107;28;19921;-75
2021/10/20 01:47:35;;;;;;;;;;;;;;;16.18;59.72;99177.13;5011725;28;19917;-73
2021/10/20 01:50:01;;;;;;;;;;;;;;;16.16;59.78;99177.25;5002723;28;19924;-74
2021/10/20 01:52:26;;;;;;;;;;;;;;;16.13;59.98;99172.19;5012234;28;19928;-75
2021/10/20 01:54:51;;;;;;;;;;;;;;;16.12;60.37;99166.97;5030384;28;19921;-74
2021/10/20 01:57:17;;;;;;;;;;;;;;;16.11;59.98;99176.78;5029348;28;19917;-75
2021/10/20 01:59:44;;;;;;;;;;;;;;;16.09;60.07;99178.72;5011893;28;20042;-74
2021/10/20 02:02:17;;;;;;;;;;;;;;;16.07;60.35;99178.88;5027566;28;20004;-73
2021/10/20 02:04:42;;;;;;;;;;;;;;;16.05;60.54;99175.47;5011526;28;19921;-73
2021/10/20 02:07:07;;;;;;;;;;;;;;;16.04;60.31;99175.59;5018193;28;20080;-74
2021/10/20 02:09:33;;;;;;;;;;;;;;;16.01;60.55;99166.06;5018471;28;19999;-75
2021/10/20 02:11:58;;;;;;;;;;;;;;;15.99;60.43;99170.66;5028694;28;20016;-74
2021/10/20 02:14:23;;;;;;;;;;;;;;;15.98;60.58;99168.97;5029119;28;20016;-73
2021/10/20 02:16:48;;;;;;;;;;;;;;;15.97;60.56;99166.41;5029597;28;19981;-72
2021/10/20 02:19:13;;;;;;;;;;;;;;;15.96;60.62;99162.09;5030233;28;19952;-73
2021/10/20 02:21:39;;;;;;;;;;;;;;;15.95;60.87;99160.38;5002419;28;19951;-75
2021/10/20 02:24:04;;;;;;;;;;;;;;;15.93;60.58;99152.56;5029954;28;19967;-74
2021/10/20 02:26:30;;;;;;;;;;;;;;;15.92;60.80;99156.16;5029783;28;19917;-74
2021/10/20 02:28:55;;;;;;;;;;;;;;;15.93;60.90;99151.72;5030204;28;19921;-74
2021/10/20 02:31:20;;;;;;;;;;;;;;;15.90;60.87;99147.50;5011360;28;19977;-75
2021/10/20 02:33:51;;;;;;;;;;;;;;;15.89;60.69;99135.16;5029544;28;19976;-73
2021/10/20 02:36:19;;;;;;;;;;;;;;;15.91;60.60;99145.66;5012532;28;20442;-74
2021/10/20 02:38:44;;;;;;;;;;;;;;;15.89;61.12;99143.97;5011570;28;19924;-74
2021/10/20 02:41:09;;;;;;;;;;;;;;;15.87;61.00;99131.78;5028005;28;20326;-74
2021/10/20 02:43:39;;;;;;;;;;;;;;;15.85;60.79;99133.69;5028855;28;19959;-74
2021/10/20 02:46:04;;;;;;;;;;;;;;;15.84;60.98;99122.22;5012411;28;19926;-73
2021/10/20 02:48:30;;;;;;;;;;;;;;;15.85;60.95;99123.94;5030001;28;19917;-76
2021/10/20 02:50:55;;;;;;;;;;;;;;;15.86;60.91;99114.16;5012389;28;19967;-73
2021/10/20 02:53:20;;;;;;;;;;;;;;;15.86;60.86;99106.16;5029240;28;19929;-73
2021/10/20 02:55:46;;;;;;;;;;;;;;;15.86;60.67;99098.19;4995367;28;19971;-74
2021/10/20 02:58:11;;;;;;;;;;;;;;;15.84;60.68;99093.00;5028848;28;19924;-74
2021/10/20 03:00:36;;;;;;;;;;;;;;;15.86;60.78;99098.19;5028737;28;19917;-74
2021/10/20 03:03:01;;;;;;;;;;;;;;;15.86;60.93;99087.56;5028494;28;19941;-73
2021/10/20 03:05:27;;;;;;;;;;;;;;;15.85;60.95;99081.41;5030019;28;19925;-73
2021/10/20 03:07:54;;;;;;;;;;;;;;;15.84;60.76;99086.84;5033248;28;19917;-74
2021/10/20 03:10:19;;;;;;;;;;;;;;;15.83;61.16;99087.81;5032031;28;19974;-74
2021/10/20 03:12:44;;;;;;;;;;;;;;;15.78;61.00;99079.38;5014901;28;20327;-73
2021/10/20 03:15:10;;;;;;;;;;;;;;;15.79;61.11;99081.06;5014737;28;19975;-73
2021/10/20 03:17:37;;;;;;;;;;;;;;;15.76;61.28;99068.03;5032492;28;19917;-73
2021/10/20 03:20:02;;;;;;;;;;;;;;;15.76;61.46;99076.00;5031850;28;20000;-74
2021/10/20 03:22:28;;;;;;;;;;;;;;;15.74;61.39;99076.13;5013973;28;20009;-74
2021/10/20 03:24:53;;;;;;;;;;;;;;;15.76;61.40;99076.00;4996322;28;19983;-75
2021/10/20 03:27:19;;;;;;;;;;;;;;;15.73;61.45;99070.94;5014702;28;19925;-74
2021/10/20 03:29:44;;;;;;;;;;;;;;;15.67;61.62;99072.25;5032567;28;19917;-75
2021/10/20 03:32:09;;;;;;;;;;;;;;;15.69;61.85;99065.00;5031372;28;20032;-75
2021/10/20 03:34:35;;;;;;;;;;;;;;;15.71;61.72;99060.44;5032183;28;19917;-74
2021/10/20 03:37:00;;;;;;;;;;;;;;;15.70;62.08;99057.88;5014556;28;19917;-76
2021/10/20 03:39:25;;;;;;;;;;;;;;;15.68;62.00;99058.84;5014731;28;20071;-74
2021/10/20 03:41:50;;;;;;;;;;;;;;;15.69;61.96;99057.03;5031111;28;19953;-76
2021/10/20 03:44:15;;;;;;;;;;;;;;;15.68;62.11;99048.22;5032183;28;19932;-75
2021/10/20 03:46:41;;;;;;;;;;;;;;;15.67;62.05;99046.50;5014472;28;19917;-75
2021/10/20 03:49:06;;;;;;;;;;;;;;;15.66;62.46;99052.81;5031889;28;19921;-75
2021/10/20 03:51:32;;;;;;;;;;;;;;;15.66;62.47;99036.88;5031334;28;20373;-74
2021/10/20 03:53:57;;;;;;;;;;;;;;;15.66;62.34;99036.88;5031985;28;20401;-74
2021/10/20 03:56:22;;;;;;;;;;;;;;;15.66;62.52;99036.03;5014767;28;19924;-74
2021/10/20 03:58:48;;;;;;;;;;;;;;;15.67;62.81;99040.34;5016587;28;19928;-74
2021/10/20 04:01:13;;;;;;;;;;;;;;;15.68;62.50;99034.94;5037432;28;19917;-74
2021/10/20 04:03:38;;;;;;;;;;;;;;;15.68;62.87;99018.97;5018530;28;20108;-75
2021/10/20 04:06:03;;;;;;;;;;;;;;;15.70;62.65;99018.88;5032251;28;19943;-74
2021/10/20 04:08:28;;;;;;;;;;;;;;;15.70;62.47;99018.88;5030905;28;19952;-74
2021/10/20 04:10:54;;;;;;;;;;;;;;;15.71;63.00;99009.09;5020416;28;20365;-74
2021/10/20 04:13:19;;;;;;;;;;;;;;;15.71;62.94;99009.94;5030280;28;20429;-75
2021/10/20 04:15:44;;;;;;;;;;;;;;;15.73;62.88;98997.38;5013992;28;20365;-74
2021/10/20 04:18:09;;;;;;;;;;;;;;;15.76;62.90;98996.28;5030365;28;19925;-74
2021/10/20 04:20:35;;;;;;;;;;;;;;;15.80;62.96;98997.69;5031218;28;19917;-72
2021/10/20 04:23:00;;;;;;;;;;;;;;;15.82;62.98;98999.25;5013692;28;19940;-74
2021/10/20 04:25:25;;;;;;;;;;;;;;;15.86;63.14;99000.69;5031754;28;19925;-74
2021/10/20 04:27:51;;;;;;;;;;;;;;;15.89;63.25;98991.59;5013698;28;19982;-75
2021/10/20 04:30:17;;;;;;;;;;;;;;;15.92;63.35;98994.00;5012962;28;19932;-74
2021/10/20 04:32:43;;;;;;;;;;;;;;;15.97;63.25;98994.44;5031403;28;19925;-75
2021/10/20 04:35:09;;;;;;;;;;;;;;;15.98;63.09;98980.22;5031255;28;19917;-74
2021/10/20 04:37:34;;;;;;;;;;;;;;;16.02;63.18;98986.09;5031328;28;19956;-74
2021/10/20 04:40:00;;;;;;;;;;;;;;;16.03;63.27;98977.16;5031201;28;19923;-75
2021/10/20 04:42:27;;;;;;;;;;;;;;;16.07;63.45;98970.59;5031907;28;20009;-74
2021/10/20 04:44:53;;;;;;;;;;;;;;;16.12;63.37;98975.53;5013894;28;19921;-73
2021/10/20 04:47:18;;;;;;;;;;;;;;;16.15;63.69;98968.16;5031512;28;19917;-74
2021/10/20 04:49:44;;;;;;;;;;;;;;;16.19;63.50;98958.06;5031338;28;19921;-74
2021/10/20 04:52:09;;;;;;;;;;;;;;;16.23;63.39;98959.50;5012390;28;20296;-74
2021/10/20 04:54:34;;;;;;;;;;;;;;;16.25;63.36;98954.91;5012925;28;19917;-74
2021/10/20 04:56:59;;;;;;;;;;;;;;;16.25;63.70;98945.09;5012178;28;20000;-74
2021/10/20 04:59:27;;;;;;;;;;;;;;;16.26;63.57;98945.94;5013255;28;19917;-74
2021/10/20 05:01:52;;;;;;;;;;;;;;;16.28;63.70;98939.50;5029638;28;20345;-74
2021/10/20 05:04:18;;;;;;;;;;;;;;;16.28;63.61;98931.53;5012702;28;19971;-74
2021/10/20 05:06:43;;;;;;;;;;;;;;;16.28;63.92;98928.88;5013026;28;19917;-75
2021/10/20 05:09:08;;;;;;;;;;;;;;;16.27;63.68;98927.19;5030292;28;19929;-76
2021/10/20 05:11:33;;;;;;;;;;;;;;;16.29;63.69;98937.69;5012088;28;19921;-74
2021/10/20 05:13:59;;;;;;;;;;;;;;;16.30;63.73;98921.59;5030517;28;19994;-73
2021/10/20 05:16:24;;;;;;;;;;;;;;;16.33;64.01;98930.31;5031029;28;20292;-73
2021/10/20 05:18:49;;;;;;;;;;;;;;;16.35;63.67;98915.06;5008139;28;19940;-74
2021/10/20 05:21:14;;;;;;;;;;;;;;;16.37;63.76;98900.63;5009738;28;19923;-75
2021/10/20 05:23:40;;;;;;;;;;;;;;;16.40;63.80;98899.53;5010037;28;19944;-74
2021/10/20 05:26:05;;;;;;;;;;;;;;;16.42;63.62;98893.09;5010614;28;19945;-74
2021/10/20 05:28:30;;;;;;;;;;;;;;;16.44;63.61;98891.16;5011529;28;20029;-74
2021/10/20 05:30:55;;;;;;;;;;;;;;;16.43;63.69;98889.44;5009191;28;19921;-75
2021/10/20 05:33:20;;;;;;;;;;;;;;;16.45;63.40;98871.53;5010560;28;20009;-73
2021/10/20 05:35:46;;;;;;;;;;;;;;;16.47;63.65;98864.25;5010428;28;19956;-76
2021/10/20 05:38:11;;;;;;;;;;;;;;;16.47;63.46;98858.94;4994052;28;20340;-74
2021/10/20 05:40:36;;;;;;;;;;;;;;;16.47;63.66;98850.97;5010740;28;20104;-73
2021/10/20 05:43:02;;;;;;;;;;;;;;;16.50;63.51;98844.53;4977589;28;20504;-74
2021/10/20 05:45:27;;;;;;;;;;;;;;;16.48;63.08;98834.00;4993498;28;20716;-74
2021/10/20 05:47:53;;;;;;;;;;;;;;;16.49;63.09;98829.53;5010175;28;20396;-73
2021/10/20 05:50:18;;;;;;;;;;;;;;;16.47;62.95;98832.34;5009187;28;20580;-75
2021/10/20 05:52:43;;;;;;;;;;;;;;;16.47;63.02;98842.97;5009749;28;19917;-75
2021/10/20 05:55:09;;;;;;;;;;;;;;;16.46;63.08;98840.44;5009651;28;20385;-73
2021/10/20 05:57:36;;;;;;;;;;;;;;;16.43;63.01;98835.41;5010178;28;19929;-74
2021/10/20 06:00:01;;;;;;;;;;;;;;;16.42;63.06;98837.22;5009893;28;19918;-78
2021/10/20 06:02:26;;;;;;;;;;;;;;;16.41;63.47;98826.72;5003359;28;19924;-75
2021/10/20 06:04:51;;;;;;;;;;;;;;;16.42;63.42;98826.59;5028784;28;19947;-74
2021/10/20 06:07:16;;;;;;;;;;;;;;;16.40;63.48;98825.03;5012611;28;20016;-75
2021/10/20 06:09:42;;;;;;;;;;;;;;;16.38;63.72;98825.16;5030367;28;19922;-75
2021/10/20 06:12:07;;;;;;;;;;;;;;;16.34;63.49;98822.91;5012651;28;19925;-76
2021/10/20 06:14:32;;;;;;;;;;;;;;;16.32;63.67;98807.09;5031486;28;19917;-75
2021/10/20 06:16:57;;;;;;;;;;;;;;;16.28;64.02;98803.03;5039857;28;19925;-75
2021/10/20 06:19:23;;;;;;;;;;;;;;;16.27;64.32;98801.34;5032206;28;19917;-76
2021/10/20 06:21:48;;;;;;;;;;;;;;;16.24;64.27;98801.59;5028634;28;19925;-75
2021/10/20 06:24:13;;;;;;;;;;;;;;;16.23;64.22;98830.03;5030090;28;20330;-74
2021/10/20 06:26:39;;;;;;;;;;;;;;;16.22;64.30;98846.97;5028591;28;19994;-74
2021/10/20 06:29:05;;;;;;;;;;;;;;;16.20;64.52;98829.47;5030373;28;19966;-75
2021/10/20 06:31:30;;;;;;;;;;;;;;;16.17;64.51;98832.38;5028877;28;19964;-72
2021/10/20 06:33:55;;;;;;;;;;;;;;;16.16;64.56;98828.88;5029576;28;19932;-75
2021/10/20 06:36:34;;;;;;;;;;;;;;;16.16;64.66;98844.00;5028895;28;20471;-74
2021/10/20 06:39:00;;;;;;;;;;;;;;;16.15;64.57;98826.38;5027750;28;19921;-75
2021/10/20 06:41:25;;;;;;;;;;;;;;;16.12;64.98;98838.13;5020333;28;19940;-75
2021/10/20 06:43:50;;;;;;;;;;;;;;;16.11;64.91;98828.44;5015384;28;20020;-75
2021/10/20 06:46:16;;;;;;;;;;;;;;;16.12;64.92;98832.81;5006172;28;19932;-74
2021/10/20 06:48:41;;;;;;;;;;;;;;;16.10;65.54;98842.72;5031070;28;20365;-75
2021/10/20 06:51:07;;;;;;;;;;;;;;;16.06;65.50;98850.09;5009337;28;20026;-75
2021/10/20 06:53:33;;;;;;;;;;;;;;;16.07;65.22;98849.16;5011270;28;19917;-75
2021/10/20 06:55:58;;;;;;;;;;;;;;;16.06;65.28;98851.94;5012039;28;20734;-75
2021/10/20 06:58:23;;;;;;;;;;;;;;;16.09;65.54;98851.66;5029022;28;19917;-76
2021/10/20 07:00:49;;;;;;;;;;;;;;;16.09;65.27;98854.31;5028317;28;19993;-74
2021/10/20 07:03:15;;;;;;;;;;;;;;;16.15;65.58;98860.94;5028620;28;19932;-75
2021/10/20 07:05:40;;;;;;;;;;;;;;;16.17;65.41;98848.31;5010389;28;19928;-75
2021/10/20 07:08:07;;;;;;;;;;;;;;;16.22;65.09;98862.06;5027640;28;19947;-76
2021/10/20 07:10:32;;;;;;;;;;;;;;;16.24;64.82;98847.69;5028960;28;20008;-76
2021/10/20 07:12:58;;;;;;;;;;;;;;;16.28;64.76;98856.22;5020066;28;20001;-75
2021/10/20 07:15:23;;;;;;;;;;;;;;;16.28;64.36;98857.06;5028713;28;19924;-75
2021/10/20 07:17:48;;;;;;;;;;;;;;;16.32;64.59;98854.97;5010995;28;20202;-76
2021/10/20 07:20:14;;;;;;;;;;;;;;;16.35;64.35;98848.56;5028035;28;19921;-75
2021/10/20 07:22:41;;;;;;;;;;;;;;;16.34;63.97;98834.38;5017493;28;20490;-75
2021/10/20 07:25:10;;;;;;;;;;;;;;;16.37;63.97;98844.78;5008176;28;19926;-74
2021/10/20 07:27:36;;;;;;;;;;;;;;;16.35;63.66;98836.09;5019084;28;19917;-75
2021/10/20 07:30:02;;;;;;;;;;;;;;;16.38;63.49;98834.97;5008263;28;19928;-74
2021/10/20 07:32:28;;;;;;;;;;;;;;;16.35;63.66;98830.75;5013481;28;19918;-75
2021/10/20 07:34:53;;;;;;;;;;;;;;;16.38;63.04;98827.00;5003386;28;19918;-75
2021/10/20 07:37:18;;;;;;;;;;;;;;;16.38;62.85;98827.81;4996421;28;20015;-75
2021/10/20 07:39:43;;;;;;;;;;;;;;;16.37;63.02;98830.63;5007515;28;20557;-75
2021/10/20 07:42:09;;;;;;;;;;;;;;;16.37;63.27;98818.19;5006347;28;19929;-74
2021/10/20 07:44:34;;;;;;;;;;;;;;;16.35;63.48;98821.94;5008760;28;19917;-75
2021/10/20 07:46:59;;;;;;;;;;;;;;;16.36;63.08;98821.78;5009516;28;20397;-75
2021/10/20 07:49:24;;;;;;;;;;;;;;;16.39;63.34;98836.63;5009276;28;19925;-74
2021/10/20 07:51:55;;;;;;;;;;;;;;;16.41;63.17;98848.81;5010186;28;20412;-75
2021/10/20 07:54:21;;;;;;;;;;;;;;;16.38;63.18;98805.72;5004995;28;19953;-73
2021/10/20 07:56:46;;;;;;;;;;;;;;;16.39;63.34;98789.63;5014303;28;20056;-75
2021/10/20 07:59:11;;;;;;;;;;;;;;;16.43;63.17;98783.03;5015643;28;19967;-76
2021/10/20 08:01:36;;;;;;;;;;;;;;;16.44;63.53;98790.06;4995445;28;20013;-76
2021/10/20 08:04:02;;;;;;;;;;;;;;;16.50;63.39;98759.38;5016681;28;19979;-75
2021/10/20 08:06:27;;;;;;;;;;;;;;;16.53;62.72;98759.94;5033971;28;19931;-75
2021/10/20 08:08:52;;;;;;;;;;;;;;;16.57;62.85;98757.03;5032340;28;20000;-75
2021/10/20 08:11:17;;;;;;;;;;;;;;;16.59;62.73;98739.06;5030716;28;19927;-76
2021/10/20 08:13:43;;;;;;;;;;;;;;;16.56;62.77;98740.19;5032052;28;19924;-75
2021/10/20 08:16:08;;;;;;;;;;;;;;;16.57;62.54;98749.88;5032221;28;20289;-74
2021/10/20 08:18:33;;;;;;;;;;;;;;;16.58;62.67;98737.41;5031904;28;19917;-74
2021/10/20 08:20:58;;;;;;;;;;;;;;;16.60;62.20;98736.28;5031315;28;20442;-75
2021/10/20 08:23:25;;;;;;;;;;;;;;;16.69;62.10;98739.94;5031480;28;19932;-76
2021/10/20 08:25:50;;;;;;;;;;;;;;;16.77;61.77;98752.53;5029529;28;19926;-75
2021/10/20 08:28:16;;;;;;;;;;;;;;;16.84;61.82;98743.88;5025875;28;20290;-71
2021/10/20 08:30:41;;;;;;;;;;;;;;;16.95;60.96;98738.38;5014574;28;20246;-72
2021/10/20 08:33:06;;;;;;;;;;;;;;;17.06;60.99;98736.59;5011351;28;20000;-70
2021/10/20 08:35:31;;;;;;;;;;;;;;;17.08;60.57;98742.59;5011778;28;19985;-71
2021/10/20 08:38:01;;;;;;;;;;;;;;;17.08;60.82;98753.22;5010934;28;20304;-72
2021/10/20 08:40:38;;;;;;;;;;;;;;;17.04;60.54;98744.69;4992292;28;19941;-71
2021/10/20 08:43:04;;;;;;;;;;;;;;;16.98;61.09;98723.94;5011111;28;20285;-71
2021/10/20 08:45:30;;;;;;;;;;;;;;;16.94;61.03;98712.75;5011653;28;19922;-73
2021/10/20 08:47:55;;;;;;;;;;;;;;;16.86;61.22;98722.44;5011072;28;19917;-72
2021/10/20 08:50:22;;;;;;;;;;;;;;;16.81;61.67;98706.03;5007128;28;19921;-72
2021/10/20 08:52:48;;;;;;;;;;;;;;;16.75;61.57;98697.63;5013940;28;19921;-73
2021/10/20 08:55:14;;;;;;;;;;;;;;;16.91;61.94;98693.59;5030387;28;19917;-72
2021/10/20 08:57:39;;;;;;;;;;;;;;;17.27;61.00;98691.94;4997793;28;21239;-73
2021/10/20 09:00:07;;;;;;;;;;;;;;;17.27;61.44;98696.44;5011650;28;19921;-73
2021/10/20 09:02:38;;;;;;;;;;;;;;;17.88;59.27;98679.09;5024059;28;19972;-72
2021/10/20 09:05:03;;;;;;;;;;;;;;;17.53;60.11;98659.31;5013804;28;19926;-71
2021/10/20 09:07:29;;;;;;;;;;;;;;;17.41;60.11;98650.66;5020413;28;20351;-72
2021/10/20 09:09:54;;;;;;;;;;;;;;;17.37;60.59;98676.75;5024668;28;19921;-72
2021/10/20 09:12:30;;;;;;;;;;;;;;;17.48;60.17;98677.56;5010868;28;20668;-72
2021/10/20 09:14:57;;;;;;;;;;;;;;;17.93;58.88;98655.47;5004951;28;19921;-71
2021/10/20 09:17:23;;;;;;;;;;;;;;;18.51;57.19;98654.19;5004517;28;19922;-71
2021/10/20 09:19:49;;;;;;;;;;;;;;;18.59;56.78;98649.78;5021442;28;19927;-71
2021/10/20 09:22:14;;;;;;;;;;;;;;;18.32;57.48;98655.22;5005905;28;20011;-71
2021/10/20 09:24:41;;;;;;;;;;;;;;;18.08;58.26;98645.97;5004529;28;20388;-71
2021/10/20 09:27:26;;;;;;;;;;;;;;;18.02;58.60;98649.25;5022617;28;19921;-71
2021/10/20 09:30:27;;;;;;;;;;;;;;;18.26;58.05;98632.63;5024072;28;19921;-72
2021/10/20 09:32:55;;;;;;;;;;;;;;;18.82;56.57;98662.66;4962292;28;19930;-71
2021/10/20 09:35:20;;;;;;;;;;;;;;;18.77;56.64;98641.75;5013277;28;19970;-70
2021/10/20 09:37:46;;;;;;;;;;;;;;;18.97;56.22;98647.72;5024280;28;19921;-71
2021/10/20 09:40:12;;;;;;;;;;;;;;;18.79;56.90;98652.28;5023865;28;20031;-71
2021/10/20 09:42:44;;;;;;;;;;;;;;;18.54;57.85;98636.06;5006972;28;20007;-71
2021/10/20 09:45:12;;;;;;;;;;;;;;;18.21;59.38;98641.09;5006143;28;20008;-72
2021/10/20 09:47:38;;;;;;;;;;;;;;;18.09;60.81;98652.13;5006097;28;19944;-71
2021/10/20 09:50:06;;;;;;;;;;;;;;;17.99;61.18;98673.53;5023532;28;20686;-69
2021/10/20 09:52:42;;;;;;;;;;;;;;;17.83;62.02;98654.69;5024060;28;20403;-69
2021/10/20 09:55:08;;;;;;;;;;;;;;;17.57;63.35;98645.56;5015883;28;19921;-69
2021/10/20 09:57:33;;;;;;;;;;;;;;;17.44;64.78;98626.38;5003933;28;19922;-70
2021/10/20 09:59:59;;;;;;;;;;;;;;;17.29;65.08;98633.19;4996876;28;19921;-71
2021/10/20 10:02:28;;;;;;;;;;;;;;;17.32;65.58;98633.72;5023817;28;19998;-72
2021/10/20 10:04:53;;;;;;;;;;;;;;;17.41;65.55;98633.84;4990140;28;20607;-70
2021/10/20 10:07:19;;;;;;;;;;;;;;;18.36;62.44;98641.41;5006362;28;19970;-71
2021/10/20 10:09:44;;;;;;;;;;;;;;;18.17;62.89;98634.38;5025340;28;19928;-71
2021/10/20 10:12:09;;;;;;;;;;;;;;;17.96;63.45;98644.50;4989492;28;19939;-72
2021/10/20 10:14:38;;;;;;;;;;;;;;;17.75;64.10;98639.44;5026014;28;20005;-70
2021/10/20 10:17:04;;;;;;;;;;;;;;;17.57;64.84;98648.22;5028355;28;19921;-73
2021/10/20 10:19:30;;;;;;;;;;;;;;;17.35;65.28;98657.44;5022534;28;19979;-74
2021/10/20 10:21:57;;;;;;;;;;;;;;;17.26;65.82;98660.97;5023742;28;19925;-75
2021/10/20 10:24:22;;;;;;;;;;;;;;;17.24;66.34;98668.25;5023573;28;19925;-74
2021/10/20 10:26:57;;;;;;;;;;;;;;;17.24;66.43;98683.41;5024253;28;19925;-74
2021/10/20 10:29:22;;;;;;;;;;;;;;;17.20;66.91;98680.19;5023348;28;19921;-75
2021/10/20 10:31:50;;;;;;;;;;;;;;;17.15;66.91;98674.44;5022654;28;19989;-74
2021/10/20 10:34:19;;;;;;;;;;;;;;;17.15;66.92;98677.09;5023156;28;19921;-74
2021/10/20 10:36:55;;;;;;;;;;;;;;;17.12;66.91;98685.41;5023393;28;19929;-76
2021/10/20 10:39:20;;;;;;;;;;;;;;;17.10;67.18;98680.19;5024031;28;20012;-73
2021/10/20 10:41:46;;;;;;;;;;;;;;;17.12;66.69;98675.56;5023973;28;20004;-74
2021/10/20 10:44:13;;;;;;;;;;;;;;;17.14;66.63;98665.63;5008746;28;19921;-76
2021/10/20 10:46:56;;;;;;;;;;;;;;;17.14;66.53;98667.47;5006929;28;19925;-76
2021/10/20 10:49:29;;;;;;;;;;;;;;;17.15;66.71;98666.47;5005242;28;19925;-76
2021/10/20 10:52:04;;;;;;;;;;;;;;;17.14;66.49;98684.25;5003775;28;19984;-79
2021/10/20 10:54:39;;;;;;;;;;;;;;;17.12;67.09;98677.41;5005858;28;20401;-75
2021/10/20 10:57:14;;;;;;;;;;;;;;;17.08;67.40;98684.84;5007075;28;19921;-74
2021/10/20 11:00:12;;;;;;;;;;;;;;;17.11;67.40;98683.72;5026427;28;19970;-73
2021/10/20 11:02:39;;;;;;;;;;;;;;;17.16;67.07;98690.28;4981678;28;19990;-71
2021/10/20 11:05:05;;;;;;;;;;;;;;;17.22;67.28;98704.84;5024477;28;19928;-74
2021/10/20 11:07:31;;;;;;;;;;;;;;;17.11;68.72;98697.88;5023735;28;20450;-75
2021/10/20 11:09:57;;;;;;;;;;;;;;;16.91;70.01;98691.75;5023516;28;19925;-75
2021/10/20 11:12:24;;;;;;;;;;;;;;;16.90;70.23;98699.88;5022544;28;20265;-73
2021/10/20 11:14:49;;;;;;;;;;;;;;;16.88;70.22;98685.84;4988779;28;19921;-73
2021/10/20 11:17:16;;;;;;;;;;;;;;;16.84;69.44;98687.97;5005795;28;20372;-75
2021/10/20 11:19:42;;;;;;;;;;;;;;;16.92;69.91;98681.94;5006278;28;19929;-73
2021/10/20 11:22:07;;;;;;;;;;;;;;;16.94;68.97;98680.81;5023270;28;19921;-73
2021/10/20 11:24:33;;;;;;;;;;;;;;;17.03;68.71;98672.94;5025093;28;19921;-76
2021/10/20 11:27:01;;;;;;;;;;;;;;;17.08;68.13;98681.34;5007594;28;19924;-75
2021/10/20 11:29:27;;;;;;;;;;;;;;;17.10;67.87;98671.38;5027475;28;20302;-76
2021/10/20 11:31:56;;;;;;;;;;;;;;;17.17;67.88;98665.31;5024518;28;19960;-75
2021/10/20 11:34:22;;;;;;;;;;;;;;;17.24;67.57;98656.78;5007287;28;19928;-75
2021/10/20 11:36:48;;;;;;;;;;;;;;;17.27;67.12;98657.31;5006971;28;20587;-76
2021/10/20 11:39:14;;;;;;;;;;;;;;;17.32;67.38;98644.38;5006498;28;19924;-74
2021/10/20 11:41:53;;;;;;;;;;;;;;;17.35;66.89;98652.09;5006164;28;19953;-74
2021/10/20 11:44:28;;;;;;;;;;;;;;;17.35;67.02;98645.91;5006111;28;19925;-75
2021/10/20 11:46:57;;;;;;;;;;;;;;;17.42;66.63;98646.19;4989362;28;19925;-75
2021/10/20 11:49:22;;;;;;;;;;;;;;;17.41;66.67;98653.34;4989337;28;19921;-73
2021/10/20 11:51:49;;;;;;;;;;;;;;;17.41;66.46;98642.69;5006647;28;19927;-73
2021/10/20 11:54:14;;;;;;;;;;;;;;;17.44;66.29;98622.91;4978170;28;20003;-74
2021/10/20 11:56:39;;;;;;;;;;;;;;;17.38;66.27;98629.66;5008206;28;20012;-74
2021/10/20 11:59:16;;;;;;;;;;;;;;;17.41;66.15;98624.03;5027167;28;19921;-75
2021/10/20 12:01:42;;;;;;;;;;;;;;;17.52;65.96;98609.66;5025059;28;19921;-75
2021/10/20 12:04:07;;;;;;;;;;;;;;;17.62;65.88;98599.78;5008710;28;20597;-75
2021/10/20 12:06:32;;;;;;;;;;;;;;;17.50;65.49;98598.31;5007204;28;19956;-76
2021/10/20 12:08:58;;;;;;;;;;;;;;;17.49;65.62;98602.81;5026194;28;19925;-76
2021/10/20 12:11:23;;;;;;;;;;;;;;;17.47;65.70;98611.94;5007592;28;20613;-74
2021/10/20 12:13:48;;;;;;;;;;;;;;;17.48;66.02;98601.13;5025980;28;19975;-75
2021/10/20 12:16:15;;;;;;;;;;;;;;;17.46;66.13;98615.59;5018223;28;19921;-75
2021/10/20 12:18:42;;;;;;;;;;;;;;;17.41;65.92;98612.53;5025917;28;20474;-77
2021/10/20 12:21:11;;;;;;;;;;;;;;;17.33;66.15;98602.63;5026494;28;19921;-73
2021/10/20 12:23:37;;;;;;;;;;;;;;;17.30;66.47;98614.41;5026180;28;19953;-75
2021/10/20 12:26:03;;;;;;;;;;;;;;;17.30;67.00;98595.75;5026611;28;19925;-74
2021/10/20 12:28:29;;;;;;;;;;;;;;;17.20;67.08;98597.59;5008280;28;20740;-75
2021/10/20 12:30:54;;;;;;;;;;;;;;;17.17;67.39;98592.59;5025032;28;19983;-74
2021/10/20 12:33:21;;;;;;;;;;;;;;;17.06;67.49;98601.59;5025830;28;20359;-75
2021/10/20 12:35:47;;;;;;;;;;;;;;;16.97;67.87;98605.13;5008270;28;19928;-74
2021/10/20 12:38:16;;;;;;;;;;;;;;;16.90;68.55;98599.53;5025321;28;19921;-73
2021/10/20 12:40:42;;;;;;;;;;;;;;;16.88;68.70;98601.53;5006241;28;19917;-73
2021/10/20 12:43:10;;;;;;;;;;;;;;;16.83;69.16;98597.59;5026189;28;19976;-74